To NAV CANADA Home Page Login to a new session Search on AWWS site Feedback and Comments Disclaimer Vers la page française équivalente Tips FAQ What's new on the site To the Forecasts and Observations / NOTAM section To "File a Flight Plan" website Publications and other links Update of the User's profile FIC Telephone Numbers My Weather Data Folder Route Weather Data Regional Weather Data Local Weather Data To the Forecasts and Observations / NOTAM section
Request Generated 07/26/2017 at 04:27:35 UTC . Weather information available at that time is displayed.

METAR/TAF

FREDERICTON INTL/NB    (show WxCam)

METAR CYFC 260400Z AUTO 00000KT 9SM CLR 12/09 A3016 RMK SLP215=
METAR CYFC 260300Z AUTO 00000KT 9SM CLR 13/10 A3015 RMK SLP212=
METAR CYFC 260200Z AUTO 02003KT 320V040 9SM CLR 15/09 A3014 RMK
SLP208=

TAF CYFC 252338Z 2600/2612 04010KT P6SM SKC
BECMG 2600/2602 VRB03KT
RMK FCST BASED ON AUTO OBS. NXT FCST BY 260600Z=
Your time UTC time
Weather data provided by Environment Canada and NAV CANADA